createdAt,value
2018-12-15T00:02:01.749Z,48.00
2018-12-15T00:04:27.847Z,48.28
2018-12-15T00:06:53.796Z,48.39
2018-12-15T00:09:19.788Z,47.72
2018-12-15T00:11:45.925Z,47.65
2018-12-15T00:14:12.048Z,48.00
2018-12-15T00:16:38.088Z,48.36
2018-12-15T00:19:04.153Z,47.75
2018-12-15T00:21:30.139Z,47.88
2018-12-15T00:23:56.132Z,48.35
2018-12-15T00:26:22.088Z,48.30
2018-12-15T00:28:48.076Z,47.69
2018-12-15T00:31:13.997Z,47.76
2018-12-15T00:33:39.936Z,48.26
2018-12-15T00:36:05.944Z,47.60
2018-12-15T00:38:31.880Z,47.93
2018-12-15T00:40:57.889Z,47.69
2018-12-15T00:43:23.828Z,48.48
2018-12-15T00:45:49.833Z,48.03
2018-12-15T00:48:15.768Z,48.51
2018-12-15T00:50:41.768Z,48.62
2018-12-15T00:53:07.717Z,48.59
2018-12-15T00:55:33.716Z,48.76
2018-12-15T00:57:59.657Z,47.78
2018-12-15T01:00:25.659Z,48.61
2018-12-15T01:02:51.604Z,48.52
2018-12-15T01:05:17.609Z,48.52
2018-12-15T01:07:43.752Z,48.54
2018-12-15T01:10:09.756Z,47.91
2018-12-15T01:12:35.692Z,48.54
2018-12-15T01:15:01.865Z,48.65
2018-12-15T01:17:27.821Z,47.99
2018-12-15T01:19:53.862Z,48.75
2018-12-15T01:22:19.986Z,48.48
2018-12-15T01:24:46.023Z,48.13
2018-12-15T01:27:12.116Z,47.95
2018-12-15T01:29:38.056Z,48.14
2018-12-15T01:32:04.056Z,48.65
2018-12-15T01:34:30.012Z,48.62
2018-12-15T01:36:56.010Z,48.23
2018-12-15T01:39:22.053Z,48.56
2018-12-15T01:41:48.059Z,48.22
2018-12-15T01:44:14.091Z,48.17
2018-12-15T01:46:40.102Z,48.40
2018-12-15T01:49:06.048Z,48.01
2018-12-15T01:51:32.144Z,48.14
2018-12-15T01:53:58.099Z,48.67
2018-12-15T01:56:24.093Z,48.77
2018-12-15T01:58:50.113Z,48.70
2018-12-15T02:01:16.050Z,48.47
2018-12-15T02:03:42.048Z,48.52
2018-12-15T02:06:08.001Z,48.24
2018-12-15T02:08:34.001Z,48.36
2018-12-15T02:10:59.944Z,48.31
2018-12-15T02:13:25.944Z,48.55
2018-12-15T02:15:51.884Z,48.50
2018-12-15T02:18:17.885Z,48.78
2018-12-15T02:20:43.924Z,48.83
2018-12-15T02:23:09.930Z,48.60
2018-12-15T02:25:35.860Z,48.19
2018-12-15T02:28:01.875Z,48.27
2018-12-15T02:30:27.873Z,48.85
2018-12-15T02:32:53.937Z,48.97
2018-12-15T02:35:20.072Z,48.25
2018-12-15T02:37:46.169Z,48.28
2018-12-15T02:40:12.128Z,48.73
2018-12-15T02:42:38.117Z,48.26
2018-12-15T02:45:04.175Z,48.89
2018-12-15T02:47:30.185Z,48.33
2018-12-15T02:49:56.185Z,48.71
2018-12-15T02:52:22.328Z,48.45
2018-12-15T02:54:48.337Z,48.84
2018-12-15T02:57:14.376Z,48.33
2018-12-15T02:59:40.378Z,48.25
2018-12-15T03:02:06.415Z,49.02
2018-12-15T03:04:32.552Z,48.63
2018-12-15T03:06:58.568Z,47.90
2018-12-15T03:09:24.564Z,49.13
2018-12-15T03:11:50.504Z,48.81
2018-12-15T03:14:16.521Z,48.74
2018-12-15T03:16:48.278Z,48.82
2018-12-15T03:19:14.396Z,48.96
2018-12-15T03:21:40.448Z,48.77
2018-12-15T03:24:06.452Z,48.08
2018-12-15T03:26:32.504Z,48.12
2018-12-15T03:28:58.488Z,48.37
2018-12-15T03:31:24.418Z,48.41
2018-12-15T03:33:50.556Z,48.40
2018-12-15T03:36:16.552Z,48.52
2018-12-15T03:38:42.504Z,48.29
2018-12-15T03:41:08.501Z,48.30
2018-12-15T03:43:34.440Z,48.59
2018-12-15T03:46:00.448Z,48.94
2018-12-15T03:48:26.387Z,48.37
2018-12-15T03:50:52.494Z,48.86
2018-12-15T03:53:18.440Z,48.87
2018-12-15T03:55:44.532Z,48.94
2018-12-15T03:58:10.480Z,48.49
2018-12-15T04:00:36.588Z,48.72
2018-12-15T04:03:02.626Z,49.00
2018-12-15T04:05:28.733Z,48.82
2018-12-15T04:07:54.674Z,49.05
2018-12-15T04:10:20.788Z,48.85
2018-12-15T04:12:46.844Z,49.09
2018-12-15T04:15:12.930Z,49.01
2018-12-15T04:17:39.053Z,48.80
2018-12-15T04:20:05.100Z,48.35
2018-12-15T04:22:31.200Z,48.71
2018-12-15T04:24:57.158Z,49.17
2018-12-15T04:27:23.240Z,48.80
2018-12-15T04:29:49.193Z,48.43
2018-12-15T04:32:15.293Z,48.42
2018-12-15T04:34:41.227Z,48.66
2018-12-15T04:37:07.242Z,49.06
2018-12-15T04:39:33.285Z,48.37
2018-12-15T04:41:59.297Z,49.03
2018-12-15T04:44:25.368Z,49.07
2018-12-15T04:46:51.434Z,48.65
2018-12-15T04:49:17.474Z,49.00
2018-12-15T04:51:43.493Z,49.12
2018-12-15T04:54:09.525Z,48.54
2018-12-15T04:56:35.624Z,49.07
2018-12-15T04:59:01.538Z,48.39
2018-12-15T05:01:27.485Z,48.66
2018-12-15T05:03:53.492Z,48.40
2018-12-15T05:06:19.528Z,49.15
2018-12-15T05:08:45.531Z,48.41
2018-12-15T05:11:11.477Z,49.14
2018-12-15T05:13:37.585Z,49.32
2018-12-15T05:16:03.528Z,48.81
2018-12-15T05:18:29.520Z,48.42
2018-12-15T05:20:55.567Z,49.01
2018-12-15T05:23:21.569Z,48.53
2018-12-15T05:25:47.502Z,48.98
2018-12-15T05:28:13.521Z,48.98
2018-12-15T05:30:39.548Z,49.08
2018-12-15T05:33:05.569Z,48.98
2018-12-15T05:35:31.616Z,48.99
2018-12-15T05:37:57.604Z,48.49
2018-12-15T05:40:23.548Z,48.56
2018-12-15T05:42:49.544Z,48.99
2018-12-15T05:45:15.496Z,48.70
2018-12-15T05:47:41.513Z,48.42
2018-12-15T05:50:07.521Z,48.54
2018-12-15T05:52:33.562Z,48.70
2018-12-15T05:54:59.664Z,48.42
2018-12-15T05:57:25.604Z,48.68
2018-12-15T05:59:51.601Z,48.69
2018-12-15T06:02:17.652Z,49.11
2018-12-15T06:04:43.661Z,48.62
2018-12-15T06:07:09.696Z,48.80
2018-12-15T06:09:35.700Z,48.98
2018-12-15T06:12:01.644Z,48.57
2018-12-15T06:14:27.638Z,49.11
2018-12-15T06:16:53.580Z,48.74
2018-12-15T06:19:19.604Z,49.01
2018-12-15T06:21:45.624Z,48.77
2018-12-15T06:24:11.632Z,48.87
2018-12-15T06:26:37.564Z,48.59
2018-12-15T06:29:03.575Z,48.76
2018-12-15T06:31:29.497Z,48.97
2018-12-15T06:33:55.431Z,48.94
2018-12-15T06:36:21.441Z,48.92
2018-12-15T06:38:47.376Z,48.94
2018-12-15T06:41:13.380Z,48.79
2018-12-15T06:43:39.336Z,49.22
2018-12-15T06:46:05.334Z,49.22
2018-12-15T06:48:31.373Z,48.71
2018-12-15T06:51:00.017Z,49.09
2018-12-15T06:53:26.080Z,49.24
2018-12-15T06:55:52.077Z,48.66
2018-12-15T06:58:18.136Z,48.76
2018-12-15T07:00:44.128Z,48.67
2018-12-15T07:03:10.064Z,48.85
2018-12-15T07:05:36.072Z,49.39
2018-12-15T07:08:02.013Z,48.60
2018-12-15T07:10:28.016Z,49.27
2018-12-15T07:12:54.185Z,48.64
2018-12-15T07:15:20.163Z,48.65
2018-12-15T07:17:46.185Z,49.45
2018-12-15T07:20:12.229Z,49.11
2018-12-15T07:22:38.233Z,49.42
2018-12-15T07:25:04.189Z,49.24
2018-12-15T07:27:30.172Z,48.98
2018-12-15T07:29:56.116Z,48.64
2018-12-15T07:32:22.112Z,48.47
2018-12-15T07:34:48.072Z,48.76
2018-12-15T07:37:14.169Z,49.21
2018-12-15T07:39:40.204Z,48.62
2018-12-15T07:42:06.200Z,48.92
2018-12-15T07:44:32.153Z,48.62
2018-12-15T07:46:58.160Z,48.95
2018-12-15T07:49:24.196Z,49.28
2018-12-15T07:51:50.721Z,48.72
2018-12-15T07:54:16.760Z,48.99
2018-12-15T07:56:42.753Z,48.68
2018-12-15T07:59:08.694Z,49.28
2018-12-15T08:01:34.700Z,48.90
2018-12-15T08:04:00.626Z,49.08
2018-12-15T08:06:26.772Z,50.10
2018-12-15T08:08:52.876Z,50.66
2018-12-15T08:11:18.812Z,49.59
2018-12-15T08:13:44.822Z,49.69
2018-12-15T08:16:10.856Z,49.58
2018-12-15T08:18:36.876Z,49.90
2018-12-15T08:21:02.916Z,49.45
2018-12-15T08:23:28.907Z,49.62
2018-12-15T08:25:54.844Z,48.62
2018-12-15T08:28:20.844Z,48.18
2018-12-15T08:30:46.788Z,48.58
2018-12-15T08:33:12.897Z,48.38
2018-12-15T08:35:38.882Z,47.92
2018-12-15T08:38:04.840Z,47.63
2018-12-15T08:40:30.780Z,47.40
2018-12-15T08:42:56.784Z,46.38
2018-12-15T08:45:22.791Z,45.68
2018-12-15T08:47:48.849Z,45.33
2018-12-15T08:50:14.853Z,45.65
2018-12-15T08:52:40.792Z,45.37
2018-12-15T08:55:06.792Z,45.44
2018-12-15T08:57:32.736Z,44.97
2018-12-15T08:59:58.741Z,44.82
2018-12-15T09:02:24.780Z,44.97
2018-12-15T09:04:50.792Z,44.81
2018-12-15T09:07:16.829Z,44.24
2018-12-15T09:09:42.943Z,43.44
2018-12-15T09:12:08.985Z,43.18
2018-12-15T09:14:34.993Z,42.81
2018-12-15T09:17:01.024Z,42.91
2018-12-15T09:19:27.040Z,42.58
2018-12-15T09:21:53.076Z,42.79
2018-12-15T09:24:19.116Z,42.65
2018-12-15T09:26:45.056Z,42.06
2018-12-15T09:29:11.016Z,41.81
2018-12-15T09:31:36.932Z,41.77
2018-12-15T09:34:02.878Z,41.78
2018-12-15T09:36:28.980Z,42.06
2018-12-15T09:38:54.924Z,41.82
2018-12-15T09:41:20.925Z,41.52
2018-12-15T09:43:46.865Z,41.66
2018-12-15T09:46:12.869Z,41.98
2018-12-15T09:48:38.809Z,41.97
2018-12-15T09:51:04.820Z,42.26
2018-12-15T09:53:30.857Z,42.33
2018-12-15T09:55:56.852Z,41.88
2018-12-15T09:58:22.796Z,42.28
2018-12-15T10:00:48.797Z,42.82
2018-12-15T10:03:14.740Z,42.24
2018-12-15T10:05:40.746Z,41.68
2018-12-15T10:08:06.688Z,42.58
2018-12-15T10:10:32.695Z,42.65
2018-12-15T10:12:58.752Z,42.46
2018-12-15T10:15:24.741Z,42.46
2018-12-15T10:17:50.766Z,42.74
2018-12-15T10:20:16.805Z,43.32
2018-12-15T10:22:42.808Z,43.54
2018-12-15T10:25:08.848Z,43.02
2018-12-15T10:27:34.843Z,43.32
2018-12-15T10:30:00.788Z,43.87
2018-12-15T10:32:26.796Z,44.06
2018-12-15T10:34:52.736Z,43.16
2018-12-15T10:37:18.737Z,42.88
2018-12-15T10:39:44.677Z,42.89
2018-12-15T10:42:10.685Z,43.46
2018-12-15T10:44:36.748Z,42.98
2018-12-15T10:47:02.724Z,43.75
2018-12-15T10:49:30.890Z,43.84
2018-12-15T10:51:56.647Z,43.31
2018-12-15T10:54:22.656Z,43.75
2018-12-15T10:56:48.764Z,43.38
2018-12-15T10:59:14.713Z,43.55
2018-12-15T11:01:40.699Z,44.19
2018-12-15T11:04:06.669Z,43.58
2018-12-15T11:06:32.656Z,43.75
2018-12-15T11:08:58.675Z,44.43
2018-12-15T11:11:24.617Z,44.42
2018-12-15T11:13:50.616Z,44.58
2018-12-15T11:16:16.561Z,44.11
2018-12-15T11:18:42.556Z,44.03
2018-12-15T11:21:08.613Z,44.50
2018-12-15T11:23:34.717Z,44.74
2018-12-15T11:26:00.759Z,44.80
2018-12-15T11:28:26.856Z,44.18
2018-12-15T11:30:52.800Z,44.25
2018-12-15T11:33:18.796Z,44.87
2018-12-15T11:35:44.740Z,44.75
2018-12-15T11:38:10.750Z,44.89
2018-12-15T11:40:36.787Z,44.24
2018-12-15T11:43:02.899Z,44.06
2018-12-15T11:45:28.936Z,43.68
2018-12-15T11:47:54.951Z,43.92
2018-12-15T11:50:21.083Z,43.80
2018-12-15T11:52:47.093Z,44.57
2018-12-15T11:55:13.137Z,44.54
2018-12-15T11:57:39.152Z,45.02
2018-12-15T12:00:05.293Z,44.01
2018-12-15T12:02:31.958Z,44.26
2018-12-15T12:04:58.228Z,43.26
2018-12-15T12:07:24.169Z,42.99
2018-12-15T12:09:50.180Z,42.56
2018-12-15T12:12:16.212Z,42.44
2018-12-15T12:14:42.217Z,41.81
2018-12-15T12:17:08.148Z,41.59
2018-12-15T12:19:34.169Z,42.28
2018-12-15T12:22:00.212Z,42.42
2018-12-15T12:24:26.225Z,41.99
2018-12-15T12:26:52.172Z,41.91
2018-12-15T12:29:18.157Z,42.84
2018-12-15T12:31:44.196Z,42.83
2018-12-15T12:34:10.200Z,42.58
2018-12-15T12:36:36.136Z,42.53
2018-12-15T12:39:02.278Z,42.99
2018-12-15T12:41:28.445Z,43.42
2018-12-15T12:43:54.492Z,43.34
2018-12-15T12:46:20.449Z,43.44
2018-12-15T12:48:46.606Z,43.59
2018-12-15T12:51:12.593Z,43.10
2018-12-15T12:53:38.584Z,43.43
2018-12-15T12:56:04.524Z,43.52
2018-12-15T12:58:30.528Z,43.77
2018-12-15T13:00:56.480Z,43.35
2018-12-15T13:03:22.468Z,43.54
2018-12-15T13:05:48.388Z,43.60
2018-12-15T13:08:14.336Z,43.90
2018-12-15T13:10:40.341Z,43.87
2018-12-15T13:13:06.381Z,44.09
2018-12-15T13:15:32.384Z,44.15
2018-12-15T13:17:58.322Z,44.05
2018-12-15T13:20:24.329Z,43.82
2018-12-15T13:22:50.368Z,43.44
2018-12-15T13:25:16.367Z,43.52
2018-12-15T13:27:42.296Z,43.71
2018-12-15T13:30:08.441Z,44.02
2018-12-15T13:32:34.460Z,43.25
2018-12-15T13:35:00.464Z,43.14
2018-12-15T13:37:26.404Z,42.65
2018-12-15T13:39:52.408Z,42.09
2018-12-15T13:42:18.348Z,42.47
2018-12-15T13:44:44.357Z,43.58
2018-12-15T13:47:10.492Z,42.44
2018-12-15T13:49:36.496Z,40.01
2018-12-15T13:52:02.452Z,37.98
2018-12-15T13:54:28.452Z,38.15
2018-12-15T13:56:54.508Z,38.36
2018-12-15T13:59:20.490Z,37.59
2018-12-15T14:01:46.613Z,37.11
2018-12-15T14:04:12.562Z,37.22
2018-12-15T14:06:38.565Z,37.08
2018-12-15T14:09:05.748Z,37.65
2018-12-15T14:11:31.725Z,36.69
2018-12-15T14:13:57.684Z,36.58
2018-12-15T14:16:23.676Z,37.36
2018-12-15T14:18:49.614Z,36.76
2018-12-15T14:21:16.104Z,37.84
2018-12-15T14:23:42.086Z,36.90
2018-12-15T14:26:08.180Z,36.99
2018-12-15T14:28:34.116Z,37.62
2018-12-15T14:31:00.120Z,39.50
2018-12-15T14:33:26.164Z,39.47
2018-12-15T14:35:52.169Z,39.76
2018-12-15T14:38:18.212Z,40.19
2018-12-15T14:40:44.212Z,40.21
2018-12-15T14:43:10.152Z,39.81
2018-12-15T14:45:36.163Z,39.44
2018-12-15T14:48:02.205Z,39.89
2018-12-15T14:50:28.203Z,39.08
2018-12-15T14:59:39.341Z,39.26
2018-12-15T15:02:05.344Z,40.38
2018-12-15T15:04:31.285Z,39.67
2018-12-15T15:06:57.289Z,40.62
2018-12-15T15:09:23.228Z,40.68
2018-12-15T15:11:49.234Z,41.09
2018-12-15T15:14:15.276Z,41.23
2018-12-15T15:16:41.280Z,41.50
2018-12-15T15:19:07.324Z,40.19
2018-12-15T15:21:33.390Z,41.01
2018-12-15T15:23:59.470Z,41.59
2018-12-15T15:26:25.480Z,42.12
2018-12-15T15:28:51.515Z,41.82
2018-12-15T15:31:17.516Z,42.21
2018-12-15T15:33:43.468Z,41.68
2018-12-15T15:36:09.566Z,41.28
2018-12-15T15:38:35.705Z,42.28
2018-12-15T15:41:01.727Z,41.87
2018-12-15T15:43:27.926Z,41.96
2018-12-15T15:45:54.303Z,41.92
2018-12-15T15:48:20.337Z,41.94
2018-12-15T15:50:46.341Z,42.46
2018-12-15T15:53:12.356Z,40.91
2018-12-15T15:55:38.393Z,41.42
2018-12-15T15:58:04.377Z,40.96
2018-12-15T16:00:30.325Z,40.27
2018-12-15T16:02:56.328Z,40.54
2018-12-15T16:05:22.284Z,39.66
2018-12-15T16:07:48.273Z,40.09
2018-12-15T16:10:14.317Z,39.39
2018-12-15T16:12:41.137Z,40.43
2018-12-15T16:15:07.627Z,35.95
2018-12-15T16:17:33.592Z,35.57
2018-12-15T16:19:59.635Z,37.38
2018-12-15T16:22:25.641Z,39.29
2018-12-15T16:24:51.681Z,40.03
2018-12-15T16:27:17.600Z,39.50
2018-12-15T16:29:43.627Z,39.68
2018-12-15T16:32:09.628Z,37.71
2018-12-15T16:34:35.576Z,37.11
2018-12-15T16:37:01.588Z,39.57
2018-12-15T16:39:27.620Z,39.43
2018-12-15T16:41:53.619Z,38.92
2018-12-15T16:44:19.581Z,39.54
2018-12-15T16:46:45.564Z,41.38
2018-12-15T16:49:11.576Z,41.57
2018-12-15T16:51:37.533Z,42.31
2018-12-15T16:54:03.541Z,42.85
2018-12-15T16:56:29.598Z,42.84
2018-12-15T16:58:55.681Z,42.76
2018-12-15T17:01:21.726Z,43.11
2018-12-15T17:03:47.723Z,43.56
2018-12-15T17:06:13.889Z,42.87
2018-12-15T17:08:39.887Z,43.50
2018-12-15T17:11:05.927Z,43.19
2018-12-15T17:13:31.933Z,42.59
2018-12-15T17:15:58.072Z,42.86
2018-12-15T17:18:24.069Z,42.87
2018-12-15T17:20:56.479Z,42.50
2018-12-15T17:23:18.265Z,43.33
2018-12-15T17:25:44.308Z,43.25
2018-12-15T17:28:10.244Z,43.23
2018-12-15T17:30:36.248Z,42.87
2018-12-15T17:33:02.268Z,43.58
2018-12-15T17:35:28.301Z,42.97
2018-12-15T17:37:54.616Z,43.81
2018-12-15T17:40:20.676Z,43.82
2018-12-15T17:42:46.653Z,43.31
2018-12-15T17:45:12.612Z,43.81
2018-12-15T17:47:38.601Z,43.51
2018-12-15T17:50:05.600Z,44.30
2018-12-15T17:52:31.568Z,43.56
2018-12-15T17:54:57.592Z,44.26
2018-12-15T17:57:23.632Z,44.27
2018-12-15T17:59:49.638Z,44.59
2018-12-15T18:02:15.681Z,44.22
2018-12-15T18:04:41.676Z,44.53
2018-12-15T18:07:07.625Z,43.99
2018-12-15T18:09:33.621Z,44.62
2018-12-15T18:11:59.564Z,44.63
2018-12-15T18:14:25.583Z,44.05
2018-12-15T18:16:51.709Z,44.23
2018-12-15T18:19:17.709Z,44.67
2018-12-15T18:21:43.760Z,44.64
2018-12-15T18:24:09.760Z,44.69
2018-12-15T18:26:35.700Z,44.76
2018-12-15T18:29:01.709Z,44.27
2018-12-15T18:31:27.752Z,44.33
2018-12-15T18:33:53.761Z,44.75
2018-12-15T18:36:19.800Z,44.49
2018-12-15T18:38:45.799Z,44.15
2018-12-15T18:41:11.836Z,43.95
2018-12-15T18:43:37.967Z,44.40
2018-12-15T18:46:14.642Z,43.99
2018-12-15T18:48:56.285Z,44.20
2018-12-15T18:51:28.395Z,44.69
2018-12-15T18:54:02.522Z,44.67
2018-12-15T18:56:28.740Z,44.54
2018-12-15T18:58:54.732Z,44.09
2018-12-15T19:01:20.690Z,44.64
2018-12-15T19:03:46.784Z,44.00
2018-12-15T19:06:12.828Z,44.13
2018-12-15T19:08:38.824Z,43.95
2018-12-15T19:11:04.769Z,44.32
2018-12-15T19:13:30.775Z,44.01
2018-12-15T19:15:56.921Z,44.13
2018-12-15T19:18:22.940Z,44.27
2018-12-15T19:20:48.948Z,44.38
2018-12-15T19:23:14.985Z,44.14
2018-12-15T19:25:40.993Z,44.83
2018-12-15T19:28:06.933Z,44.73
2018-12-15T19:30:32.936Z,44.22
2018-12-15T19:32:58.987Z,44.90
2018-12-15T19:35:24.978Z,44.88
2018-12-15T19:37:50.932Z,44.59
2018-12-15T19:40:16.916Z,45.03
2018-12-15T19:42:42.855Z,44.81
2018-12-15T19:45:08.864Z,44.75
2018-12-15T19:47:35.024Z,44.39
2018-12-15T19:50:01.021Z,44.37
2018-12-15T19:52:27.056Z,45.11
2018-12-15T19:54:53.061Z,45.15
2018-12-15T19:57:19.005Z,44.38
2018-12-15T19:59:45.090Z,45.49
2018-12-15T20:02:11.149Z,44.66
2018-12-15T20:04:37.253Z,44.93
2018-12-15T20:07:03.204Z,45.17
2018-12-15T20:09:29.201Z,44.90
2018-12-15T20:11:55.244Z,44.93
2018-12-15T20:14:21.245Z,45.27
2018-12-15T20:16:47.376Z,45.15
2018-12-15T20:19:13.415Z,45.18
2018-12-15T20:21:39.412Z,44.92
2018-12-15T20:24:05.366Z,45.28
2018-12-15T20:26:31.460Z,44.67
2018-12-15T20:28:57.404Z,45.29
2018-12-15T20:31:23.409Z,44.90
2018-12-15T20:33:49.457Z,44.79
2018-12-15T20:36:15.453Z,44.64
2018-12-15T20:38:41.389Z,44.76
2018-12-15T20:41:07.396Z,45.54
2018-12-15T20:43:33.542Z,45.46
2018-12-15T20:45:59.541Z,45.21
2018-12-15T20:48:25.484Z,45.43
2018-12-15T20:50:51.489Z,44.98
2018-12-15T20:53:17.433Z,45.42
2018-12-15T20:55:43.432Z,45.28
2018-12-15T20:58:09.476Z,44.87
2018-12-15T21:00:35.481Z,45.37
2018-12-15T21:03:01.516Z,45.50
2018-12-15T21:05:27.537Z,45.00
2018-12-15T21:07:53.573Z,45.06
2018-12-15T21:10:19.569Z,45.65
2018-12-15T21:12:45.726Z,45.56
2018-12-15T21:15:11.717Z,45.68
2018-12-15T21:17:37.656Z,45.13
2018-12-15T21:20:04.102Z,45.48
2018-12-15T21:22:30.200Z,45.17
2018-12-15T21:24:56.240Z,45.84
2018-12-15T21:27:22.241Z,45.47
2018-12-15T21:29:48.180Z,45.18
2018-12-15T21:32:14.189Z,45.82
2018-12-15T21:34:40.124Z,45.83
2018-12-15T21:37:06.128Z,45.39
2018-12-15T21:39:32.076Z,45.40
2018-12-15T21:41:58.073Z,45.14
2018-12-15T21:44:24.012Z,45.53
2018-12-15T21:46:50.019Z,45.64
2018-12-15T21:49:16.060Z,45.90
2018-12-15T21:51:42.068Z,45.48
2018-12-15T21:54:08.113Z,45.51
2018-12-15T21:56:34.105Z,45.90
2018-12-15T21:59:00.049Z,46.10
2018-12-15T22:01:26.052Z,46.07
2018-12-15T22:03:51.996Z,46.07
2018-12-15T22:06:17.992Z,45.69
2018-12-15T22:08:43.938Z,46.29
2018-12-15T22:11:09.946Z,46.34
2018-12-15T22:13:35.981Z,46.13
2018-12-15T22:16:01.991Z,46.00
2018-12-15T22:18:28.033Z,45.71
2018-12-15T22:20:54.042Z,46.30
2018-12-15T22:23:20.209Z,46.22
2018-12-15T22:25:46.180Z,46.29
2018-12-15T22:28:12.092Z,46.77
2018-12-15T22:30:38.046Z,46.19
2018-12-15T22:33:04.040Z,45.99
2018-12-15T22:35:29.972Z,46.44
2018-12-15T22:37:55.988Z,46.26
2018-12-15T22:40:21.938Z,46.42
2018-12-15T22:42:47.928Z,45.87
2018-12-15T22:45:13.922Z,46.45
2018-12-15T22:47:39.973Z,46.36
2018-12-15T22:50:06.460Z,46.55
2018-12-15T22:52:32.437Z,46.27
2018-12-15T22:54:58.476Z,45.76
2018-12-15T22:57:24.493Z,45.73
2018-12-15T22:59:50.521Z,46.50
2018-12-15T23:02:16.533Z,46.30
2018-12-15T23:04:42.664Z,45.42
2018-12-15T23:07:08.668Z,45.98
2018-12-15T23:09:34.612Z,45.40
2018-12-15T23:12:00.612Z,45.99
2018-12-15T23:14:26.568Z,45.51
2018-12-15T23:16:52.557Z,45.68
2018-12-15T23:19:18.561Z,45.90
2018-12-15T23:21:44.605Z,46.11
2018-12-15T23:24:10.525Z,45.47
2018-12-15T23:26:36.460Z,45.59
2018-12-15T23:29:02.377Z,45.43
2018-12-15T23:31:28.412Z,45.65
2018-12-15T23:33:54.408Z,45.65
2018-12-15T23:36:20.352Z,46.44
2018-12-15T23:38:46.364Z,45.85
2018-12-15T23:41:12.395Z,45.91
2018-12-15T23:43:38.400Z,46.89
2018-12-15T23:46:04.336Z,46.02
2018-12-15T23:48:30.344Z,45.98
2018-12-15T23:50:56.293Z,46.11
2018-12-15T23:53:22.284Z,46.77
2018-12-15T23:55:48.225Z,46.71
2018-12-15T23:58:14.225Z,46.82
